Aktuell METAR/TAF ESNU/UME

250050Z VRB02KT CAVOK M07/M10 Q0998 RWY 14 CLEAR AND DRY 51-100 PCT BA GOOD=

242330Z 2500/2509 29006KT CAVOK=
Källa: Luftfartsverket (aro.lfv.se)